createdAt,value
2022-12-23T00:01:28.050Z,25.90
2022-12-23T00:03:58.850Z,25.98
2022-12-23T00:06:27.751Z,25.73
2022-12-23T00:08:58.827Z,24.88
2022-12-23T00:11:29.882Z,29.95
2022-12-23T00:14:21.067Z,26.42
2022-12-23T00:16:51.579Z,26.13
2022-12-23T00:19:20.024Z,25.40
2022-12-23T00:21:49.329Z,28.13
2022-12-23T00:24:17.606Z,24.85
2022-12-23T00:26:47.746Z,26.27
2022-12-23T00:29:18.754Z,25.40
2022-12-23T00:34:15.341Z,24.25
2022-12-23T00:36:43.870Z,26.30
2022-12-23T00:39:30.806Z,24.58
2022-12-23T00:42:17.976Z,24.88
2022-12-23T00:44:46.208Z,28.70
2022-12-23T00:47:36.358Z,24.05
2022-12-23T00:50:03.836Z,24.10
2022-12-23T00:52:32.399Z,25.70
2022-12-23T00:55:00.803Z,25.15
2022-12-23T00:57:30.953Z,22.98
2022-12-23T00:59:59.289Z,22.67
2022-12-23T01:02:45.727Z,22.58
2022-12-23T01:05:37.173Z,23.17
2022-12-23T01:08:07.341Z,23.60
2022-12-23T01:10:35.949Z,26.85
2022-12-23T01:13:06.341Z,21.13
2022-12-23T01:15:34.953Z,28.25
2022-12-23T01:18:03.611Z,24.25
2022-12-23T01:20:31.784Z,25.73
2022-12-23T01:23:00.332Z,26.85
2022-12-23T01:25:28.513Z,25.02
2022-12-23T01:27:57.106Z,24.20
2022-12-23T01:30:26.833Z,26.70
2022-12-23T01:32:55.347Z,29.90
2022-12-23T01:35:23.630Z,25.77
2022-12-23T01:37:52.081Z,26.60
2022-12-23T01:40:20.442Z,26.05
2022-12-23T01:42:47.921Z,26.35
2022-12-23T01:45:21.001Z,23.52
2022-12-23T01:47:54.081Z,25.73
2022-12-23T01:50:25.553Z,26.45
2022-12-23T01:53:04.574Z,29.38
2022-12-23T01:55:39.127Z,30.73
2022-12-23T01:58:11.211Z,27.92
2022-12-23T02:00:57.923Z,32.45
2022-12-23T02:03:46.320Z,33.22
2022-12-23T02:06:36.033Z,31.15
2022-12-23T02:09:18.376Z,33.08
2022-12-23T02:11:59.361Z,30.10
2022-12-23T02:14:57.965Z,32.63
2022-12-23T02:17:29.846Z,38.42
2022-12-23T02:20:17.729Z,39.85
2022-12-23T02:23:02.090Z,37.88
2022-12-23T02:25:49.957Z,38.28
2022-12-23T02:28:33.651Z,38.38
2022-12-23T02:31:10.658Z,34.33
2022-12-23T02:33:48.921Z,39.15
2022-12-23T02:36:30.152Z,40.13
2022-12-23T02:39:01.391Z,38.63
2022-12-23T02:41:34.870Z,36.85
2022-12-23T02:44:07.140Z,40.20
2022-12-23T02:46:39.814Z,35.63
2022-12-23T02:49:11.408Z,39.50
2022-12-23T02:51:45.719Z,36.25
2022-12-23T02:54:26.291Z,36.35
2022-12-23T02:56:55.587Z,38.00
2022-12-23T02:59:26.000Z,33.08
2022-12-23T03:01:56.491Z,35.65
2022-12-23T03:04:24.895Z,36.83
2022-12-23T03:06:55.040Z,33.97
2022-12-23T03:09:26.883Z,32.47
2022-12-23T03:12:03.057Z,32.72
2022-12-23T03:14:55.167Z,29.13
2022-12-23T03:17:40.984Z,30.58
2022-12-23T03:20:15.302Z,32.97
2022-12-23T03:22:51.057Z,25.95
2022-12-23T03:25:21.708Z,26.63
2022-12-23T03:27:54.462Z,28.77
2022-12-23T03:30:24.279Z,24.30
2022-12-23T03:32:56.859Z,24.40
2022-12-23T03:35:31.810Z,22.75
2022-12-23T03:38:02.115Z,22.80
2022-12-23T03:40:35.383Z,23.55
2022-12-23T03:43:06.523Z,22.10
2022-12-23T03:45:39.772Z,21.23
2022-12-23T03:48:15.187Z,21.27
2022-12-23T03:50:44.558Z,21.90
2022-12-23T03:53:16.619Z,21.38
2022-12-23T03:55:48.417Z,19.58
2022-12-23T03:58:25.516Z,21.50
2022-12-23T04:00:59.718Z,22.17
2022-12-23T04:03:32.806Z,21.70
2022-12-23T04:06:03.482Z,23.60
2022-12-23T04:08:34.890Z,24.38
2022-12-23T04:11:03.922Z,24.55
2022-12-23T04:13:33.194Z,22.13
2022-12-23T04:16:02.097Z,23.20
2022-12-23T04:18:32.108Z,22.17
2022-12-23T04:21:00.340Z,26.65
2022-12-23T04:23:29.023Z,26.08
2022-12-23T04:25:57.312Z,21.98
2022-12-23T04:28:25.896Z,27.05
2022-12-23T04:30:54.158Z,22.88
2022-12-23T04:33:22.772Z,20.67
2022-12-23T04:35:52.374Z,18.70
2022-12-23T04:38:20.879Z,16.85
2022-12-23T04:40:49.339Z,18.92
2022-12-23T04:43:17.862Z,19.85
2022-12-23T04:45:46.268Z,20.30
2022-12-23T04:48:14.821Z,18.83
2022-12-23T04:50:43.061Z,20.65
2022-12-23T04:53:12.925Z,19.02
2022-12-23T04:55:41.254Z,20.23
2022-12-23T04:58:10.065Z,16.98
2022-12-23T05:00:40.047Z,18.08
2022-12-23T05:03:08.920Z,17.67
2022-12-23T05:05:37.345Z,18.60
2022-12-23T05:08:07.102Z,17.13
2022-12-23T05:10:36.863Z,16.77
2022-12-23T05:13:05.374Z,15.35
2022-12-23T05:15:34.132Z,15.77
2022-12-23T05:18:02.730Z,15.57
2022-12-23T05:20:31.036Z,15.77
2022-12-23T05:22:59.620Z,16.80
2022-12-23T05:25:28.257Z,16.88
2022-12-23T05:27:58.300Z,15.50
2022-12-23T05:30:26.695Z,16.13
2022-12-23T05:32:55.331Z,13.88
2022-12-23T05:35:23.604Z,14.20
2022-12-23T05:37:52.197Z,14.98
2022-12-23T05:40:23.705Z,13.38
2022-12-23T05:42:54.317Z,15.68
2022-12-23T05:45:24.110Z,13.18
2022-12-23T05:47:52.671Z,15.02
2022-12-23T05:50:20.900Z,14.65
2022-12-23T05:52:49.412Z,13.65
2022-12-23T05:55:18.014Z,18.00
2022-12-23T05:57:46.497Z,16.40
2022-12-23T06:00:17.099Z,15.75
2022-12-23T06:02:53.486Z,16.42
2022-12-23T06:05:22.920Z,16.05
2022-12-23T06:07:51.513Z,17.83
2022-12-23T06:10:21.609Z,15.88
2022-12-23T06:12:50.353Z,17.00
2022-12-23T06:15:19.995Z,16.05
2022-12-23T06:17:50.637Z,16.15
2022-12-23T06:20:20.982Z,16.75
2022-12-23T06:22:49.910Z,15.82
2022-12-23T06:25:18.208Z,18.35
2022-12-23T06:27:46.716Z,17.90
2022-12-23T06:30:15.597Z,13.60
2022-12-23T06:32:44.760Z,14.13
2022-12-23T06:35:14.334Z,13.35
2022-12-23T06:37:42.973Z,17.15
2022-12-23T06:40:12.856Z,12.13
2022-12-23T06:42:41.609Z,11.98
2022-12-23T06:45:11.122Z,12.52
2022-12-23T06:47:39.723Z,12.70
2022-12-23T06:50:09.070Z,10.82
2022-12-23T06:52:39.225Z,11.95
2022-12-23T06:55:08.216Z,12.05
2022-12-23T06:57:36.852Z,13.23
2022-12-23T07:00:05.698Z,10.23
2022-12-23T07:02:34.518Z,13.13
2022-12-23T07:05:03.117Z,13.10
2022-12-23T07:07:33.086Z,14.15
2022-12-23T07:10:02.740Z,15.10
2022-12-23T07:12:31.438Z,35.13
2022-12-23T07:15:00.104Z,15.13
2022-12-23T07:17:29.177Z,20.52
2022-12-23T07:19:57.384Z,42.10
2022-12-23T07:22:26.130Z,19.00
2022-12-23T07:24:54.405Z,13.43
2022-12-23T07:27:24.439Z,14.80
2022-12-23T07:29:52.875Z,16.15
2022-12-23T07:32:21.404Z,14.45
2022-12-23T07:34:49.968Z,15.98
2022-12-23T07:37:18.613Z,14.27
2022-12-23T07:39:47.088Z,16.38
2022-12-23T07:42:43.276Z,14.68
2022-12-23T07:45:06.555Z,16.10
2022-12-23T07:47:35.165Z,13.48
2022-12-23T07:50:03.709Z,16.58
2022-12-23T07:52:32.282Z,14.50
2022-12-23T07:55:00.742Z,16.15
2022-12-23T07:57:29.482Z,14.82
2022-12-23T07:59:58.139Z,17.13
2022-12-23T08:02:28.372Z,17.20
2022-12-23T08:04:57.734Z,16.90
2022-12-23T08:07:26.416Z,18.33
2022-12-23T08:09:55.245Z,16.17
2022-12-23T08:12:23.991Z,15.57
2022-12-23T08:14:52.862Z,19.25
2022-12-23T08:17:22.199Z,18.50
2022-12-23T08:19:52.024Z,17.00
2022-12-23T08:22:20.607Z,17.08
2022-12-23T08:24:48.964Z,18.60
2022-12-23T08:27:17.563Z,18.85
2022-12-23T08:29:45.946Z,17.17
2022-12-23T08:32:14.374Z,17.77
2022-12-23T08:34:42.747Z,16.33
2022-12-23T08:37:12.661Z,17.10
2022-12-23T08:39:41.091Z,18.13
2022-12-23T08:42:10.269Z,17.80
2022-12-23T08:44:38.559Z,20.33
2022-12-23T08:47:07.165Z,19.08
2022-12-23T08:49:36.563Z,18.50
2022-12-23T08:52:05.182Z,17.23
2022-12-23T08:54:35.089Z,19.90
2022-12-23T08:57:03.660Z,21.38
2022-12-23T08:59:31.977Z,17.42
2022-12-23T09:02:02.320Z,19.58
2022-12-23T09:04:30.669Z,18.10
2022-12-23T09:06:59.347Z,19.42
2022-12-23T09:09:27.952Z,21.42
2022-12-23T09:11:57.980Z,20.85
2022-12-23T09:14:26.343Z,17.38
2022-12-23T09:16:54.879Z,17.38
2022-12-23T09:19:23.265Z,20.73
2022-12-23T09:21:51.855Z,25.33
2022-12-23T09:24:20.158Z,24.08
2022-12-23T09:26:48.749Z,22.30
2022-12-23T09:29:18.420Z,22.17
2022-12-23T09:31:47.126Z,16.60
2022-12-23T09:34:15.464Z,18.80
2022-12-23T09:36:44.152Z,37.08
2022-12-23T09:39:12.702Z,27.35
2022-12-23T09:41:56.187Z,27.85
2022-12-23T09:44:41.821Z,24.13
2022-12-23T09:47:13.189Z,27.08
2022-12-23T09:49:47.808Z,18.00
2022-12-23T09:52:21.232Z,18.30
2022-12-23T09:54:52.963Z,18.65
2022-12-23T09:57:24.137Z,20.60
2022-12-23T10:00:02.872Z,15.38
2022-12-23T10:02:44.556Z,15.32
2022-12-23T10:05:22.035Z,15.02
2022-12-23T10:07:53.200Z,15.10
2022-12-23T10:10:29.450Z,19.02
2022-12-23T10:12:59.824Z,13.50
2022-12-23T10:15:31.695Z,14.02
2022-12-23T10:18:04.046Z,13.70
2022-12-23T10:20:39.030Z,12.98
2022-12-23T10:23:12.413Z,15.57
2022-12-23T10:25:44.825Z,10.88
2022-12-23T10:28:13.673Z,15.07
2022-12-23T10:31:23.810Z,12.68
2022-12-23T10:33:38.898Z,10.55
2022-12-23T10:36:11.983Z,11.70
2022-12-23T10:38:49.358Z,14.63
2022-12-23T10:41:27.133Z,11.82
2022-12-23T10:44:05.670Z,14.43
2022-12-23T10:46:40.714Z,11.35
2022-12-23T10:49:16.921Z,13.32
2022-12-23T10:51:47.900Z,11.10
2022-12-23T10:54:19.290Z,13.05
2022-12-23T10:56:47.992Z,12.52
2022-12-23T10:59:17.998Z,12.63
2022-12-23T11:01:48.768Z,12.05
2022-12-23T11:04:19.561Z,14.82
2022-12-23T11:07:10.656Z,18.60
2022-12-23T11:09:42.319Z,14.45
2022-12-23T11:12:12.106Z,17.27
2022-12-23T11:14:42.867Z,16.75
2022-12-23T11:17:23.353Z,13.88
2022-12-23T11:20:09.243Z,14.65
2022-12-23T11:22:38.522Z,13.75
2022-12-23T11:25:28.005Z,17.15
2022-12-23T11:27:58.541Z,15.18
2022-12-23T11:30:28.288Z,19.55
2022-12-23T11:32:58.072Z,14.25
2022-12-23T11:35:29.012Z,13.80
2022-12-23T11:37:57.751Z,14.10
2022-12-23T11:40:28.654Z,13.45
2022-12-23T11:43:02.437Z,13.82
2022-12-23T11:45:32.198Z,13.65
2022-12-23T11:48:01.933Z,14.98
2022-12-23T11:50:34.010Z,15.63
2022-12-23T11:53:06.095Z,15.85
2022-12-23T11:55:34.703Z,23.35
2022-12-23T11:58:03.999Z,30.55
2022-12-23T12:00:38.520Z,20.83
2022-12-23T12:03:08.832Z,22.20
2022-12-23T12:05:40.666Z,26.30
2022-12-23T12:08:11.937Z,20.35
2022-12-23T12:10:41.867Z,23.38
2022-12-23T12:13:23.857Z,24.17
2022-12-23T12:15:59.873Z,26.63
2022-12-23T12:18:30.040Z,35.10
2022-12-23T12:21:01.679Z,25.30
2022-12-23T12:23:38.893Z,19.58
2022-12-23T12:26:10.576Z,25.02
2022-12-23T12:28:40.615Z,24.08
2022-12-23T12:31:17.793Z,26.48
2022-12-23T12:33:50.885Z,21.38
2022-12-23T12:36:26.459Z,22.10
2022-12-23T12:38:56.158Z,19.80
2022-12-23T12:41:29.331Z,15.40
2022-12-23T12:44:03.413Z,15.50
2022-12-23T12:46:36.015Z,11.45
2022-12-23T12:49:12.404Z,11.18
2022-12-23T12:51:45.017Z,10.45
2022-12-23T12:54:19.900Z,11.68
2022-12-23T12:56:51.809Z,12.80
2022-12-23T12:59:22.801Z,14.25
2022-12-23T13:02:03.374Z,10.50
2022-12-23T13:05:08.177Z,11.77
2022-12-23T13:07:45.247Z,14.32
2022-12-23T13:10:17.982Z,15.38
2022-12-23T13:12:57.831Z,13.45
2022-12-23T13:15:31.724Z,14.25
2022-12-23T13:18:14.885Z,13.27
2022-12-23T13:20:49.591Z,14.40
2022-12-23T13:23:45.816Z,17.23
2022-12-23T13:26:16.653Z,16.85
2022-12-23T13:28:52.271Z,19.10
2022-12-23T13:31:29.464Z,29.77
2022-12-23T13:34:02.924Z,22.00
2022-12-23T13:36:42.073Z,21.65
2022-12-23T13:39:24.074Z,28.33
2022-12-23T13:44:22.191Z,21.45
2022-12-23T13:46:58.630Z,30.33
2022-12-23T13:49:34.431Z,31.85
2022-12-23T13:52:08.417Z,21.17
2022-12-23T13:54:46.763Z,18.58
2022-12-23T13:57:25.327Z,15.80
2022-12-23T14:00:06.074Z,11.13
2022-12-23T14:03:01.026Z,24.92
2022-12-23T14:05:45.534Z,21.85
2022-12-23T14:08:28.439Z,20.75
2022-12-23T14:11:00.359Z,16.42
2022-12-23T14:16:27.053Z,17.40
2022-12-23T14:19:24.011Z,14.02
2022-12-23T14:22:05.251Z,17.77
2022-12-23T14:25:15.379Z,18.20
2022-12-23T14:27:54.070Z,26.52
2022-12-23T14:30:26.202Z,17.08
2022-12-23T14:32:59.973Z,20.15
2022-12-23T14:35:52.839Z,21.05
2022-12-23T14:38:30.882Z,18.48
2022-12-23T14:41:40.652Z,19.17
2022-12-23T14:44:21.285Z,19.85
2022-12-23T14:46:59.098Z,16.80
2022-12-23T14:49:43.130Z,20.88
2022-12-23T14:52:54.186Z,27.52
2022-12-23T14:55:49.329Z,16.80
2022-12-23T14:58:54.897Z,18.13
2022-12-23T15:01:30.614Z,15.20
2022-12-23T15:04:01.818Z,15.27
2022-12-23T15:06:34.947Z,15.65
2022-12-23T15:09:11.010Z,18.40
2022-12-23T15:11:41.808Z,17.13
2022-12-23T15:14:18.577Z,18.73
2022-12-23T15:16:47.573Z,46.33
2022-12-23T15:19:26.272Z,28.55
2022-12-23T15:22:22.132Z,59.33
2022-12-23T15:25:01.740Z,30.60
2022-12-23T15:27:35.932Z,21.27
2022-12-23T15:30:07.542Z,22.88
2022-12-23T15:32:37.356Z,22.80
2022-12-23T15:35:22.390Z,22.73
2022-12-23T15:37:52.615Z,23.67
2022-12-23T15:40:27.108Z,21.80
2022-12-23T15:42:58.958Z,22.00
2022-12-23T15:45:37.447Z,23.95
2022-12-23T15:48:08.608Z,24.67
2022-12-23T15:50:42.089Z,23.83
2022-12-23T15:53:17.726Z,20.73
2022-12-23T15:55:46.943Z,27.05
2022-12-23T15:58:23.573Z,24.70
2022-12-23T16:00:55.895Z,30.60
2022-12-23T16:03:35.227Z,31.25
2022-12-23T16:06:12.635Z,27.08
2022-12-23T16:08:41.927Z,24.27
2022-12-23T16:11:15.763Z,26.05
2022-12-23T16:13:58.868Z,24.85
2022-12-23T16:16:40.059Z,29.50
2022-12-23T16:19:42.892Z,48.60
2022-12-23T16:22:36.861Z,36.65
2022-12-23T16:25:12.034Z,26.02
2022-12-23T16:27:42.464Z,29.02
2022-12-23T16:30:20.153Z,24.92
2022-12-23T16:32:53.277Z,27.45
2022-12-23T16:35:32.821Z,26.05
2022-12-23T16:38:11.890Z,29.80
2022-12-23T16:40:43.345Z,27.27
2022-12-23T16:43:11.775Z,25.23
2022-12-23T16:45:48.101Z,25.33
2022-12-23T16:48:26.948Z,24.10
2022-12-23T16:50:59.403Z,26.52
2022-12-23T16:53:28.913Z,23.13
2022-12-23T16:56:01.126Z,20.83
2022-12-23T16:58:33.414Z,22.85
2022-12-23T17:01:03.111Z,23.10
2022-12-23T17:03:36.636Z,21.00
2022-12-23T17:06:06.967Z,27.52
2022-12-23T17:08:35.849Z,27.90
2022-12-23T17:11:10.806Z,28.75
2022-12-23T17:13:40.250Z,26.30
2022-12-23T17:16:15.783Z,27.95
2022-12-23T17:18:45.695Z,26.10
2022-12-23T17:21:20.403Z,23.48
2022-12-23T17:23:57.763Z,23.60
2022-12-23T17:26:34.669Z,29.58
2022-12-23T17:29:04.930Z,25.02
2022-12-23T17:31:42.000Z,29.38
2022-12-23T17:34:17.811Z,29.65
2022-12-23T17:36:50.554Z,25.58
2022-12-23T17:39:22.097Z,23.75
2022-12-23T17:41:58.836Z,27.58
2022-12-23T17:44:29.695Z,27.83
2022-12-23T17:47:00.864Z,27.05
2022-12-23T17:49:31.232Z,25.65
2022-12-23T17:52:00.854Z,26.33
2022-12-23T17:54:29.782Z,25.98
2022-12-23T17:57:04.095Z,25.65
2022-12-23T17:59:35.007Z,30.00
2022-12-23T18:02:06.603Z,27.88
2022-12-23T18:04:36.903Z,36.95
2022-12-23T18:07:18.928Z,37.75
2022-12-23T18:10:01.214Z,31.25
2022-12-23T18:12:36.262Z,29.63
2022-12-23T18:15:08.773Z,29.90
2022-12-23T18:17:37.930Z,35.78
2022-12-23T18:20:11.449Z,41.03
2022-12-23T18:22:40.097Z,35.25
2022-12-23T18:25:15.911Z,32.08
2022-12-23T18:27:44.513Z,34.67
2022-12-23T18:30:13.215Z,31.63
2022-12-23T18:32:42.588Z,35.40
2022-12-23T18:35:30.996Z,33.72
2022-12-23T18:38:00.590Z,33.03
2022-12-23T18:40:33.015Z,27.52
2022-12-23T18:43:02.325Z,32.35
2022-12-23T18:45:34.649Z,35.22
2022-12-23T18:48:07.485Z,29.42
2022-12-23T18:50:39.259Z,28.35
2022-12-23T18:53:09.132Z,29.83
2022-12-23T18:55:37.717Z,29.50
2022-12-23T18:58:06.179Z,26.95
2022-12-23T19:00:34.687Z,31.45
2022-12-23T19:03:03.414Z,31.48
2022-12-23T19:05:33.839Z,28.17
2022-12-23T19:08:03.897Z,25.40
2022-12-23T19:10:34.721Z,26.83
2022-12-23T19:13:03.296Z,25.40
2022-12-23T19:15:33.035Z,27.65
2022-12-23T19:18:01.589Z,26.50
2022-12-23T19:20:29.997Z,27.63
2022-12-23T19:22:58.575Z,24.77
2022-12-23T19:25:28.361Z,25.88
2022-12-23T19:27:57.405Z,22.60
2022-12-23T19:30:25.988Z,27.55
2022-12-23T19:32:54.577Z,25.40
2022-12-23T19:35:22.976Z,26.92
2022-12-23T19:37:51.658Z,27.27
2022-12-23T19:40:20.820Z,27.73
2022-12-23T19:42:50.827Z,24.23
2022-12-23T19:45:19.322Z,27.13
2022-12-23T19:47:48.017Z,26.02
2022-12-23T19:50:16.552Z,25.58
2022-12-23T19:52:45.150Z,24.45
2022-12-23T19:55:15.828Z,25.50
2022-12-23T19:57:44.335Z,23.40
2022-12-23T20:00:16.107Z,27.63
2022-12-23T20:02:44.738Z,24.05
2022-12-23T20:05:13.133Z,25.48
2022-12-23T20:07:41.739Z,22.52
2022-12-23T20:10:11.008Z,23.52
2022-12-23T20:12:40.568Z,24.30
2022-12-23T20:15:10.379Z,28.67
2022-12-23T20:17:40.614Z,24.50
2022-12-23T20:20:09.972Z,26.90
2022-12-23T20:22:38.907Z,24.65
2022-12-23T20:25:08.045Z,23.42
2022-12-23T20:27:38.858Z,22.17
2022-12-23T20:30:08.445Z,23.60
2022-12-23T20:32:37.135Z,22.40
2022-12-23T20:35:08.167Z,25.70
2022-12-23T20:37:36.891Z,19.48
2022-12-23T20:40:07.400Z,19.17
2022-12-23T20:42:36.659Z,19.63
2022-12-23T20:45:05.530Z,19.67
2022-12-23T20:47:34.143Z,22.88
2022-12-23T20:50:02.387Z,21.40
2022-12-23T20:52:32.836Z,23.98
2022-12-23T20:55:01.739Z,26.17
2022-12-23T20:57:31.439Z,22.55
2022-12-23T21:00:00.615Z,21.80
2022-12-23T21:02:29.311Z,22.73
2022-12-23T21:04:57.620Z,21.88
2022-12-23T21:07:26.930Z,19.98
2022-12-23T21:09:56.616Z,19.50
2022-12-23T21:12:25.163Z,17.77
2022-12-23T21:14:53.425Z,21.65
2022-12-23T21:17:23.964Z,19.33
2022-12-23T21:19:52.183Z,18.50
2022-12-23T21:22:20.932Z,18.58
2022-12-23T21:24:49.131Z,20.30
2022-12-23T21:27:19.053Z,20.25
2022-12-23T21:29:47.253Z,17.73
2022-12-23T21:32:15.826Z,20.73
2022-12-23T21:34:44.146Z,19.20
2022-12-23T21:37:13.304Z,22.00
2022-12-23T21:39:42.155Z,20.77
2022-12-23T21:42:11.259Z,18.30
2022-12-23T21:44:42.943Z,19.13
2022-12-23T21:47:18.648Z,16.75
2022-12-23T21:49:49.270Z,15.75
2022-12-23T21:52:20.216Z,21.25
2022-12-23T21:54:48.537Z,16.80
2022-12-23T21:57:17.102Z,16.42
2022-12-23T21:59:46.838Z,15.35
2022-12-23T22:02:17.503Z,15.63
2022-12-23T22:04:45.875Z,16.60
2022-12-23T22:07:14.409Z,19.92
2022-12-23T22:09:42.609Z,17.08
2022-12-23T22:12:11.124Z,19.33
2022-12-23T22:14:39.676Z,24.10
2022-12-23T22:17:09.761Z,18.73
2022-12-23T22:19:38.102Z,19.58
2022-12-23T22:22:06.678Z,28.42
2022-12-23T22:24:34.874Z,16.10
2022-12-23T22:27:03.621Z,18.33
2022-12-23T22:29:32.067Z,15.82
2022-12-23T22:32:00.715Z,21.05
2022-12-23T22:34:30.365Z,21.15
2022-12-23T22:36:58.899Z,27.70
2022-12-23T22:39:27.288Z,19.30
2022-12-23T22:41:55.843Z,20.63
2022-12-23T22:44:24.073Z,21.58
2022-12-23T22:46:52.593Z,16.98
2022-12-23T22:49:21.048Z,22.23
2022-12-23T22:51:51.013Z,18.88
2022-12-23T22:54:19.543Z,25.15
2022-12-23T22:56:48.099Z,21.15
2022-12-23T22:59:21.285Z,22.27
2022-12-23T23:01:50.078Z,20.40
2022-12-23T23:04:18.718Z,17.92
2022-12-23T23:06:47.442Z,22.33
2022-12-23T23:09:18.921Z,18.48
2022-12-23T23:11:47.621Z,18.88
2022-12-23T23:14:16.050Z,18.95
2022-12-23T23:16:44.795Z,21.20
2022-12-23T23:19:14.443Z,22.17
2022-12-23T23:21:43.240Z,26.75
2022-12-23T23:24:12.040Z,23.13
2022-12-23T23:26:41.996Z,20.38
2022-12-23T23:29:10.291Z,19.05
2022-12-23T23:31:42.442Z,17.55
2022-12-23T23:34:11.282Z,23.35
2022-12-23T23:36:40.112Z,35.00
2022-12-23T23:39:08.459Z,20.88
2022-12-23T23:41:37.136Z,18.63
2022-12-23T23:44:06.789Z,16.58
2022-12-23T23:46:35.916Z,17.85
2022-12-23T23:49:04.406Z,19.40
2022-12-23T23:51:33.016Z,19.25
2022-12-23T23:54:01.222Z,17.65
2022-12-23T23:56:35.827Z,16.98
2022-12-23T23:59:08.416Z,16.95
